sensor_id;sensor_type;location;lat;lon;timestamp;pressure;altitude;pressure_sealevel;temperature;humidity
10652;BME280;5374;42.742;23.266;2023-05-16T00:02:26;95126.91;;;14.97;100.00
10652;BME280;5374;42.742;23.266;2023-05-16T00:05:13;95108.34;;;14.87;100.00
10652;BME280;5374;42.742;23.266;2023-05-16T00:08:01;95126.91;;;14.97;100.00
10652;BME280;5374;42.742;23.266;2023-05-16T00:10:48;95108.72;;;14.76;100.00
10652;BME280;5374;42.742;23.266;2023-05-16T00:13:37;95129.31;;;14.99;100.00
10652;BME280;5374;42.742;23.266;2023-05-16T00:16:27;95091.25;;;14.83;100.00
10652;BME280;5374;42.742;23.266;2023-05-16T00:19:15;95087.84;;;14.78;100.00
10652;BME280;5374;42.742;23.266;2023-05-16T00:22:02;95122.88;;;15.00;100.00
10652;BME280;5374;42.742;23.266;2023-05-16T00:24:50;95129.81;;;15.01;100.00
10652;BME280;5374;42.742;23.266;2023-05-16T00:27:37;95119.91;;;15.01;100.00
10652;BME280;5374;42.742;23.266;2023-05-16T00:30:26;95104.56;;;14.88;100.00
10652;BME280;5374;42.742;23.266;2023-05-16T00:33:13;95076.06;;;14.79;100.00
10652;BME280;5374;42.742;23.266;2023-05-16T00:36:00;95103.69;;;14.93;100.00
10652;BME280;5374;42.742;23.266;2023-05-16T00:38:47;95106.59;;;14.96;100.00
10652;BME280;5374;42.742;23.266;2023-05-16T00:41:35;95103.38;;;14.99;100.00
10652;BME280;5374;42.742;23.266;2023-05-16T00:44:23;95092.53;;;14.91;100.00
10652;BME280;5374;42.742;23.266;2023-05-16T00:47:12;95081.50;;;14.92;100.00
10652;BME280;5374;42.742;23.266;2023-05-16T00:49:59;95047.78;;;14.73;100.00
10652;BME280;5374;42.742;23.266;2023-05-16T00:52:47;95061.91;;;14.78;100.00
10652;BME280;5374;42.742;23.266;2023-05-16T00:55:34;95085.28;;;14.91;100.00
10652;BME280;5374;42.742;23.266;2023-05-16T00:58:22;95073.63;;;14.82;100.00
10652;BME280;5374;42.742;23.266;2023-05-16T01:01:10;95087.19;;;14.91;100.00
10652;BME280;5374;42.742;23.266;2023-05-16T01:03:59;95073.91;;;14.81;100.00
10652;BME280;5374;42.742;23.266;2023-05-16T01:06:46;95078.34;;;14.90;100.00
10652;BME280;5374;42.742;23.266;2023-05-16T01:09:33;95064.59;;;14.78;100.00
10652;BME280;5374;42.742;23.266;2023-05-16T01:12:28;95074.66;;;14.86;100.00
10652;BME280;5374;42.742;23.266;2023-05-16T01:15:20;95065.19;;;14.70;100.00
10652;BME280;5374;42.742;23.266;2023-05-16T01:18:13;95066.50;;;14.73;100.00
10652;BME280;5374;42.742;23.266;2023-05-16T01:21:07;95073.84;;;14.86;100.00
10652;BME280;5374;42.742;23.266;2023-05-16T01:24:03;95056.38;;;14.69;100.00
10652;BME280;5374;42.742;23.266;2023-05-16T01:26:58;95064.06;;;14.76;100.00
10652;BME280;5374;42.742;23.266;2023-05-16T01:29:45;95061.91;;;14.78;100.00
10652;BME280;5374;42.742;23.266;2023-05-16T01:32:32;95068.63;;;14.76;100.00
10652;BME280;5374;42.742;23.266;2023-05-16T01:35:20;95062.81;;;14.68;100.00
10652;BME280;5374;42.742;23.266;2023-05-16T01:38:11;95016.59;;;14.44;100.00
10652;BME280;5374;42.742;23.266;2023-05-16T01:41:07;95038.38;;;14.56;100.00
10652;BME280;5374;42.742;23.266;2023-05-16T01:44:05;95040.44;;;14.64;100.00
10652;BME280;5374;42.742;23.266;2023-05-16T01:46:56;95049.16;;;14.70;100.00
10652;BME280;5374;42.742;23.266;2023-05-16T01:49:50;95025.56;;;14.53;100.00
10652;BME280;5374;42.742;23.266;2023-05-16T01:52:47;95043.34;;;14.68;100.00
10652;BME280;5374;42.742;23.266;2023-05-16T01:55:45;95017.78;;;14.57;100.00
10652;BME280;5374;42.742;23.266;2023-05-16T01:58:38;95058.38;;;14.59;100.00
10652;BME280;5374;42.742;23.266;2023-05-16T02:01:31;94919.59;;;13.72;100.00
10652;BME280;5374;42.742;23.266;2023-05-16T02:04:19;95003.25;;;14.15;100.00
10652;BME280;5374;42.742;23.266;2023-05-16T02:07:07;95034.56;;;14.33;100.00
10652;BME280;5374;42.742;23.266;2023-05-16T02:09:54;95035.13;;;14.30;100.00
10652;BME280;5374;42.742;23.266;2023-05-16T02:12:41;95032.97;;;14.32;100.00
10652;BME280;5374;42.742;23.266;2023-05-16T02:15:31;95027.75;;;14.22;100.00
10652;BME280;5374;42.742;23.266;2023-05-16T02:18:20;95009.19;;;14.07;100.00
10652;BME280;5374;42.742;23.266;2023-05-16T02:21:08;95027.78;;;14.17;100.00
10652;BME280;5374;42.742;23.266;2023-05-16T02:23:55;95046.81;;;14.11;100.00
10652;BME280;5374;42.742;23.266;2023-05-16T02:26:42;95029.66;;;14.17;100.00
10652;BME280;5374;42.742;23.266;2023-05-16T02:29:29;95029.19;;;14.10;100.00
10652;BME280;5374;42.742;23.266;2023-05-16T02:32:16;95031.81;;;14.15;100.00
10652;BME280;5374;42.742;23.266;2023-05-16T02:35:06;95013.31;;;13.94;100.00
10652;BME280;5374;42.742;23.266;2023-05-16T02:37:53;95039.63;;;14.06;100.00
10652;BME280;5374;42.742;23.266;2023-05-16T02:40:41;95041.78;;;14.04;100.00
10652;BME280;5374;42.742;23.266;2023-05-16T02:43:28;95034.53;;;14.10;100.00
10652;BME280;5374;42.742;23.266;2023-05-16T02:46:22;94997.13;;;13.86;100.00
10652;BME280;5374;42.742;23.266;2023-05-16T02:49:10;95034.00;;;14.08;100.00
10652;BME280;5374;42.742;23.266;2023-05-16T02:51:58;95027.72;;;13.98;100.00
10652;BME280;5374;42.742;23.266;2023-05-16T02:54:46;95012.38;;;13.80;100.00
10652;BME280;5374;42.742;23.266;2023-05-16T02:57:33;95006.81;;;13.77;100.00
10652;BME280;5374;42.742;23.266;2023-05-16T03:00:20;95024.84;;;13.90;100.00
10652;BME280;5374;42.742;23.266;2023-05-16T03:03:08;95001.47;;;13.77;100.00
10652;BME280;5374;42.742;23.266;2023-05-16T03:05:55;95027.75;;;13.93;100.00
10652;BME280;5374;42.742;23.266;2023-05-16T03:08:43;95025.91;;;13.89;100.00
10652;BME280;5374;42.742;23.266;2023-05-16T03:11:30;95015.78;;;13.86;100.00
10652;BME280;5374;42.742;23.266;2023-05-16T03:14:18;95002.31;;;13.72;100.00
10652;BME280;5374;42.742;23.266;2023-05-16T03:17:05;95005.78;;;13.73;100.00
10652;BME280;5374;42.742;23.266;2023-05-16T03:19:53;95008.41;;;13.78;100.00
10652;BME280;5374;42.742;23.266;2023-05-16T03:22:40;95007.31;;;13.79;100.00
10652;BME280;5374;42.742;23.266;2023-05-16T03:25:28;95010.78;;;13.79;100.00
10652;BME280;5374;42.742;23.266;2023-05-16T03:28:16;95013.41;;;13.84;100.00
10652;BME280;5374;42.742;23.266;2023-05-16T03:31:03;95014.75;;;13.82;100.00
10652;BME280;5374;42.742;23.266;2023-05-16T03:33:50;95018.22;;;13.82;100.00
10652;BME280;5374;42.742;23.266;2023-05-16T03:36:38;94995.38;;;13.71;100.00
10652;BME280;5374;42.742;23.266;2023-05-16T03:39:27;95015.28;;;13.84;100.00
10652;BME280;5374;42.742;23.266;2023-05-16T03:42:15;94941.59;;;13.25;100.00
10652;BME280;5374;42.742;23.266;2023-05-16T03:45:04;95020.63;;;13.84;100.00
10652;BME280;5374;42.742;23.266;2023-05-16T03:47:52;94916.56;;;13.21;100.00
10652;BME280;5374;42.742;23.266;2023-05-16T03:50:39;94997.03;;;13.62;100.00
10652;BME280;5374;42.742;23.266;2023-05-16T03:53:26;95011.00;;;13.83;100.00
10652;BME280;5374;42.742;23.266;2023-05-16T03:56:13;95013.78;;;13.73;100.00
10652;BME280;5374;42.742;23.266;2023-05-16T03:59:04;94983.69;;;13.62;100.00
10652;BME280;5374;42.742;23.266;2023-05-16T04:01:57;95013.16;;;13.81;100.00
10652;BME280;5374;42.742;23.266;2023-05-16T04:04:44;94908.84;;;13.14;100.00
10652;BME280;5374;42.742;23.266;2023-05-16T04:07:53;94913.16;;;13.10;100.00
10652;BME280;5374;42.742;23.266;2023-05-16T04:10:51;95008.84;;;13.85;100.00
10652;BME280;5374;42.742;23.266;2023-05-16T04:13:38;95012.38;;;13.80;100.00
10652;BME280;5374;42.742;23.266;2023-05-16T04:16:27;95010.19;;;13.87;100.00
10652;BME280;5374;42.742;23.266;2023-05-16T04:19:14;95013.38;;;13.89;100.00
10652;BME280;5374;42.742;23.266;2023-05-16T04:22:01;95016.28;;;13.93;100.00
10652;BME280;5374;42.742;23.266;2023-05-16T04:24:49;95006.66;;;13.92;100.00
10652;BME280;5374;42.742;23.266;2023-05-16T04:27:36;95016.78;;;13.95;100.00
10652;BME280;5374;42.742;23.266;2023-05-16T04:30:23;95007.75;;;13.91;100.00
10652;BME280;5374;42.742;23.266;2023-05-16T04:33:12;94952.53;;;13.57;100.00
10652;BME280;5374;42.742;23.266;2023-05-16T04:35:59;94990.94;;;13.90;100.00
10652;BME280;5374;42.742;23.266;2023-05-16T04:38:47;94991.25;;;13.84;100.00
10652;BME280;5374;42.742;23.266;2023-05-16T04:41:34;95012.41;;;14.04;100.00
10652;BME280;5374;42.742;23.266;2023-05-16T04:44:21;95006.25;;;14.09;100.00
10652;BME280;5374;42.742;23.266;2023-05-16T04:47:09;94997.72;;;14.07;100.00
10652;BME280;5374;42.742;23.266;2023-05-16T04:49:58;94989.97;;;14.05;100.00
10652;BME280;5374;42.742;23.266;2023-05-16T04:52:45;95001.59;;;14.19;100.00
10652;BME280;5374;42.742;23.266;2023-05-16T04:55:32;94985.91;;;14.13;100.00
10652;BME280;5374;42.742;23.266;2023-05-16T04:58:20;94985.69;;;14.09;100.00
10652;BME280;5374;42.742;23.266;2023-05-16T05:01:08;94969.88;;;13.89;100.00
10652;BME280;5374;42.742;23.266;2023-05-16T05:03:56;94969.69;;;14.04;100.00
10652;BME280;5374;42.742;23.266;2023-05-16T05:06:44;94978.75;;;14.08;100.00
10652;BME280;5374;42.742;23.266;2023-05-16T05:09:32;94982.41;;;14.17;100.00
10652;BME280;5374;42.742;23.266;2023-05-16T05:12:19;95002.75;;;14.37;100.00
10652;BME280;5374;42.742;23.266;2023-05-16T05:15:07;95001.97;;;14.36;100.00
10652;BME280;5374;42.742;23.266;2023-05-16T05:17:54;94988.78;;;14.21;100.00
10652;BME280;5374;42.742;23.266;2023-05-16T05:20:42;95014.28;;;14.32;100.00
10652;BME280;5374;42.742;23.266;2023-05-16T05:23:30;94957.28;;;13.94;100.00
10652;BME280;5374;42.742;23.266;2023-05-16T05:26:19;95004.13;;;14.34;100.00
10652;BME280;5374;42.742;23.266;2023-05-16T05:29:07;94992.91;;;14.32;100.00
10652;BME280;5374;42.742;23.266;2023-05-16T05:31:54;94975.63;;;14.25;100.00
10652;BME280;5374;42.742;23.266;2023-05-16T05:34:41;94974.78;;;14.29;100.00
10652;BME280;5374;42.742;23.266;2023-05-16T05:37:28;94944.78;;;14.14;100.00
10652;BME280;5374;42.742;23.266;2023-05-16T05:40:17;94987.72;;;14.46;100.00
10652;BME280;5374;42.742;23.266;2023-05-16T05:43:04;94966.41;;;14.41;100.00
10652;BME280;5374;42.742;23.266;2023-05-16T05:45:51;94962.97;;;14.35;100.00
10652;BME280;5374;42.742;23.266;2023-05-16T05:48:38;94929.88;;;14.08;100.00
10652;BME280;5374;42.742;23.266;2023-05-16T05:51:26;94933.78;;;14.20;100.00
10652;BME280;5374;42.742;23.266;2023-05-16T05:54:13;94910.63;;;14.11;100.00
10652;BME280;5374;42.742;23.266;2023-05-16T05:57:01;94930.34;;;14.38;100.00
10652;BME280;5374;42.742;23.266;2023-05-16T05:59:49;94973.25;;;14.71;100.00
10652;BME280;5374;42.742;23.266;2023-05-16T06:02:36;94976.31;;;14.83;100.00
10652;BME280;5374;42.742;23.266;2023-05-16T06:05:23;94985.34;;;14.87;100.00
10652;BME280;5374;42.742;23.266;2023-05-16T06:08:10;94963.63;;;14.70;100.00
10652;BME280;5374;42.742;23.266;2023-05-16T06:10:58;94963.41;;;14.90;100.00
10652;BME280;5374;42.742;23.266;2023-05-16T06:13:47;94970.69;;;15.03;100.00
10652;BME280;5374;42.742;23.266;2023-05-16T06:16:34;94970.19;;;15.01;100.00
10652;BME280;5374;42.742;23.266;2023-05-16T06:19:22;94969.03;;;15.08;100.00
10652;BME280;5374;42.742;23.266;2023-05-16T06:22:09;94964.91;;;15.15;100.00
10652;BME280;5374;42.742;23.266;2023-05-16T06:24:57;94957.88;;;15.19;100.00
10652;BME280;5374;42.742;23.266;2023-05-16T06:27:44;94973.38;;;15.22;100.00
10652;BME280;5374;42.742;23.266;2023-05-16T06:30:33;94965.63;;;15.21;100.00
10652;BME280;5374;42.742;23.266;2023-05-16T06:33:20;94995.41;;;15.33;100.00
10652;BME280;5374;42.742;23.266;2023-05-16T06:36:19;94974.22;;;15.18;100.00
10652;BME280;5374;42.742;23.266;2023-05-16T06:39:09;94975.50;;;15.39;100.00
10652;BME280;5374;42.742;23.266;2023-05-16T06:41:59;94946.19;;;15.34;100.00
10652;BME280;5374;42.742;23.266;2023-05-16T06:44:48;94969.41;;;15.57;100.00
10652;BME280;5374;42.742;23.266;2023-05-16T06:47:37;94907.47;;;15.13;100.00
10652;BME280;5374;42.742;23.266;2023-05-16T06:50:24;94968.84;;;15.55;100.00
10652;BME280;5374;42.742;23.266;2023-05-16T06:53:11;94964.22;;;15.42;100.00
10652;BME280;5374;42.742;23.266;2023-05-16T06:55:58;94943.72;;;15.56;100.00
10652;BME280;5374;42.742;23.266;2023-05-16T06:58:46;94948.09;;;15.66;100.00
10652;BME280;5374;42.742;23.266;2023-05-16T07:01:34;94909.97;;;15.55;100.00
10652;BME280;5374;42.742;23.266;2023-05-16T07:04:22;94936.44;;;15.76;100.00
10652;BME280;5374;42.742;23.266;2023-05-16T07:07:10;94935.16;;;15.87;100.00
10652;BME280;5374;42.742;23.266;2023-05-16T07:09:58;94941.09;;;15.84;100.00
10652;BME280;5374;42.742;23.266;2023-05-16T07:12:45;94936.25;;;15.86;100.00
10652;BME280;5374;42.742;23.266;2023-05-16T07:15:33;94938.75;;;15.96;100.00
10652;BME280;5374;42.742;23.266;2023-05-16T07:18:20;94933.19;;;16.06;100.00
10652;BME280;5374;42.742;23.266;2023-05-16T07:21:08;94935.19;;;16.14;100.00
10652;BME280;5374;42.742;23.266;2023-05-16T07:23:56;94926.56;;;16.17;100.00
10652;BME280;5374;42.742;23.266;2023-05-16T07:26:43;94897.97;;;16.13;100.00
10652;BME280;5374;42.742;23.266;2023-05-16T07:29:31;94898.00;;;16.26;100.00
10652;BME280;5374;42.742;23.266;2023-05-16T07:35:29;94920.81;;;16.24;100.00
10652;BME280;5374;42.742;23.266;2023-05-16T07:38:19;94928.16;;;16.46;100.00
10652;BME280;5374;42.742;23.266;2023-05-16T07:41:07;94930.72;;;16.51;100.00
10652;BME280;5374;42.742;23.266;2023-05-16T07:43:54;94942.28;;;16.65;100.00
10652;BME280;5374;42.742;23.266;2023-05-16T07:46:41;94945.03;;;16.73;100.00
10652;BME280;5374;42.742;23.266;2023-05-16T07:49:29;94930.13;;;16.81;100.00
10652;BME280;5374;42.742;23.266;2023-05-16T07:52:19;94915.13;;;16.80;100.00
10652;BME280;5374;42.742;23.266;2023-05-16T07:55:09;94934.44;;;17.04;100.00
10652;BME280;5374;42.742;23.266;2023-05-16T07:57:56;94933.94;;;17.02;100.00
10652;BME280;5374;42.742;23.266;2023-05-16T08:00:43;94942.19;;;17.06;100.00
10652;BME280;5374;42.742;23.266;2023-05-16T08:03:31;94938.25;;;17.26;100.00
10652;BME280;5374;42.742;23.266;2023-05-16T08:10:13;94865.16;;;16.84;100.00
10652;BME280;5374;42.742;23.266;2023-05-16T08:13:00;94921.44;;;17.34;100.00
10652;BME280;5374;42.742;23.266;2023-05-16T08:15:48;94888.31;;;17.16;100.00
10652;BME280;5374;42.742;23.266;2023-05-16T08:18:36;94889.22;;;17.34;100.00
10652;BME280;5374;42.742;23.266;2023-05-16T08:21:23;94880.00;;;17.49;100.00
10652;BME280;5374;42.742;23.266;2023-05-16T08:24:15;94844.13;;;17.44;100.00
10652;BME280;5374;42.742;23.266;2023-05-16T08:27:04;94877.13;;;17.67;100.00
10652;BME280;5374;42.742;23.266;2023-05-16T08:29:52;94896.84;;;17.94;100.00
10652;BME280;5374;42.742;23.266;2023-05-16T08:32:39;94901.38;;;18.07;100.00
10652;BME280;5374;42.742;23.266;2023-05-16T08:35:26;94899.66;;;18.20;100.00
10652;BME280;5374;42.742;23.266;2023-05-16T08:38:13;94879.41;;;18.14;100.00
10652;BME280;5374;42.742;23.266;2023-05-16T08:41:01;94855.47;;;17.95;100.00
10652;BME280;5374;42.742;23.266;2023-05-16T08:43:49;94867.84;;;18.13;100.00
10652;BME280;5374;42.742;23.266;2023-05-16T08:46:44;94864.38;;;18.13;100.00
10652;BME280;5374;42.742;23.266;2023-05-16T08:49:46;94897.84;;;18.46;100.00
10652;BME280;5374;42.742;23.266;2023-05-16T08:52:35;94893.97;;;18.61;100.00
10652;BME280;5374;42.742;23.266;2023-05-16T08:55:24;94900.78;;;18.75;100.00
10652;BME280;5374;42.742;23.266;2023-05-16T08:58:12;94887.97;;;18.81;100.00
10652;BME280;5374;42.742;23.266;2023-05-16T09:01:03;94891.00;;;18.71;100.00
10652;BME280;5374;42.742;23.266;2023-05-16T09:03:54;94909.84;;;19.14;100.00
10652;BME280;5374;42.742;23.266;2023-05-16T09:06:42;94907.31;;;19.00;100.00
10652;BME280;5374;42.742;23.266;2023-05-16T09:09:29;94906.69;;;19.29;100.00
10652;BME280;5374;42.742;23.266;2023-05-16T09:12:19;94883.41;;;19.33;100.00
10652;BME280;5374;42.742;23.266;2023-05-16T09:15:08;94869.63;;;19.35;100.00
10652;BME280;5374;42.742;23.266;2023-05-16T09:17:59;94907.50;;;19.56;100.00
10652;BME280;5374;42.742;23.266;2023-05-16T09:20:47;94916.97;;;19.44;100.00
10652;BME280;5374;42.742;23.266;2023-05-16T09:23:34;94914.16;;;19.58;100.00
10652;BME280;5374;42.742;23.266;2023-05-16T09:35:39;94785.75;;;18.81;100.00
10652;BME280;5374;42.742;23.266;2023-05-16T09:38:26;94850.00;;;19.26;100.00
10652;BME280;5374;42.742;23.266;2023-05-16T09:41:14;94877.38;;;19.36;100.00
10652;BME280;5374;42.742;23.266;2023-05-16T09:44:03;94874.38;;;19.38;100.00
10652;BME280;5374;42.742;23.266;2023-05-16T09:46:53;94879.13;;;19.41;100.00
10652;BME280;5374;42.742;23.266;2023-05-16T09:49:40;94874.66;;;19.45;100.00
10652;BME280;5374;42.742;23.266;2023-05-16T09:52:29;94886.56;;;19.35;100.00
10652;BME280;5374;42.742;23.266;2023-05-16T09:55:16;94854.41;;;19.22;100.00
10652;BME280;5374;42.742;23.266;2023-05-16T09:58:03;94894.66;;;19.61;100.00
10652;BME280;5374;42.742;23.266;2023-05-16T10:00:50;94890.84;;;19.62;100.00
10652;BME280;5374;42.742;23.266;2023-05-16T10:03:39;94889.97;;;19.96;100.00
10652;BME280;5374;42.742;23.266;2023-05-16T10:06:26;94864.88;;;20.04;100.00
10652;BME280;5374;42.742;23.266;2023-05-16T10:09:16;94851.09;;;20.06;100.00
10652;BME280;5374;42.742;23.266;2023-05-16T10:12:07;94895.81;;;20.36;100.00
10652;BME280;5374;42.742;23.266;2023-05-16T10:14:56;94886.13;;;20.53;100.00
10652;BME280;5374;42.742;23.266;2023-05-16T10:17:44;94876.19;;;20.65;100.00
10652;BME280;5374;42.742;23.266;2023-05-16T10:20:37;94877.31;;;20.85;100.00
10652;BME280;5374;42.742;23.266;2023-05-16T10:23:27;94875.56;;;20.89;100.00
10652;BME280;5374;42.742;23.266;2023-05-16T10:26:16;94879.84;;;20.90;100.00
10652;BME280;5374;42.742;23.266;2023-05-16T10:29:03;94874.78;;;20.89;100.00
10652;BME280;5374;42.742;23.266;2023-05-16T10:31:52;94868.50;;;20.76;100.00
10652;BME280;5374;42.742;23.266;2023-05-16T10:34:39;94855.72;;;20.64;100.00
10652;BME280;5374;42.742;23.266;2023-05-16T10:37:28;94837.41;;;20.49;100.00
10652;BME280;5374;42.742;23.266;2023-05-16T10:40:17;94842.69;;;20.66;100.00
10652;BME280;5374;42.742;23.266;2023-05-16T10:43:07;94853.34;;;20.63;100.00
10652;BME280;5374;42.742;23.266;2023-05-16T10:46:04;94811.69;;;20.22;100.00
10652;BME280;5374;42.742;23.266;2023-05-16T10:48:52;94818.53;;;20.49;100.00
10652;BME280;5374;42.742;23.266;2023-05-16T10:51:39;94834.88;;;20.73;100.00
10652;BME280;5374;42.742;23.266;2023-05-16T10:54:33;94818.22;;;20.71;100.00
10652;BME280;5374;42.742;23.266;2023-05-16T10:57:22;94807.28;;;20.89;100.00
10652;BME280;5374;42.742;23.266;2023-05-16T11:00:20;94836.19;;;20.88;100.00
10652;BME280;5374;42.742;23.266;2023-05-16T11:03:21;94836.50;;;20.87;100.00
10652;BME280;5374;42.742;23.266;2023-05-16T11:06:12;94850.75;;;20.75;100.00
10652;BME280;5374;42.742;23.266;2023-05-16T11:09:16;94870.94;;;20.90;100.00
10652;BME280;5374;42.742;23.266;2023-05-16T11:12:04;94890.44;;;20.74;100.00
10652;BME280;5374;42.742;23.266;2023-05-16T11:14:51;94886.75;;;20.50;100.00
10652;BME280;5374;42.742;23.266;2023-05-16T11:17:41;94893.44;;;20.43;100.00
10652;BME280;5374;42.742;23.266;2023-05-16T11:20:29;94893.59;;;20.47;100.00
10652;BME280;5374;42.742;23.266;2023-05-16T11:23:21;94888.44;;;20.25;100.00
10652;BME280;5374;42.742;23.266;2023-05-16T11:26:08;94885.25;;;20.31;100.00
10652;BME280;5374;42.742;23.266;2023-05-16T11:28:56;94892.38;;;20.27;100.00
10652;BME280;5374;42.742;23.266;2023-05-16T11:31:44;94899.88;;;20.13;100.00
10652;BME280;5374;42.742;23.266;2023-05-16T11:34:35;94879.09;;;20.22;100.00
10652;BME280;5374;42.742;23.266;2023-05-16T11:37:24;94869.19;;;20.35;100.00
10652;BME280;5374;42.742;23.266;2023-05-16T11:40:12;94866.16;;;20.36;100.00
10652;BME280;5374;42.742;23.266;2023-05-16T11:43:00;94853.47;;;20.45;100.00
10652;BME280;5374;42.742;23.266;2023-05-16T11:45:53;94849.25;;;20.57;100.00
10652;BME280;5374;42.742;23.266;2023-05-16T11:48:40;94856.66;;;20.68;100.00
10652;BME280;5374;42.742;23.266;2023-05-16T11:51:32;94860.75;;;20.74;100.00
10652;BME280;5374;42.742;23.266;2023-05-16T11:54:20;94864.81;;;20.80;100.00
10652;BME280;5374;42.742;23.266;2023-05-16T11:57:07;94866.66;;;20.89;100.00
10652;BME280;5374;42.742;23.266;2023-05-16T11:59:55;94871.69;;;20.99;100.00
10652;BME280;5374;42.742;23.266;2023-05-16T12:02:43;94859.81;;;21.12;100.00
10652;BME280;5374;42.742;23.266;2023-05-16T12:09:03;94842.78;;;21.53;100.00
10652;BME280;5374;42.742;23.266;2023-05-16T12:11:55;94810.97;;;21.71;100.00
10652;BME280;5374;42.742;23.266;2023-05-16T12:14:42;94805.72;;;21.87;100.00
10652;BME280;5374;42.742;23.266;2023-05-16T12:17:29;94804.00;;;21.94;100.00
10652;BME280;5374;42.742;23.266;2023-05-16T12:20:19;94811.91;;;21.99;100.00
10652;BME280;5374;42.742;23.266;2023-05-16T12:23:16;94823.06;;;21.86;100.00
10652;BME280;5374;42.742;23.266;2023-05-16T12:26:05;94825.56;;;21.91;100.00
10652;BME280;5374;42.742;23.266;2023-05-16T12:28:53;94806.03;;;21.85;100.00
10652;BME280;5374;42.742;23.266;2023-05-16T12:31:42;94784.19;;;21.78;100.00
10652;BME280;5374;42.742;23.266;2023-05-16T12:34:29;94818.31;;;21.95;100.00
10652;BME280;5374;42.742;23.266;2023-05-16T12:37:17;94817.66;;;21.98;100.00
10652;BME280;5374;42.742;23.266;2023-05-16T12:40:07;94810.97;;;21.71;100.00
10652;BME280;5374;42.742;23.266;2023-05-16T12:42:57;94811.47;;;21.40;100.00
10652;BME280;5374;42.742;23.266;2023-05-16T12:45:49;94818.25;;;21.25;100.00
10652;BME280;5374;42.742;23.266;2023-05-16T12:48:37;94813.97;;;21.03;100.00
10652;BME280;5374;42.742;23.266;2023-05-16T12:51:28;94811.38;;;20.95;100.00
10652;BME280;5374;42.742;23.266;2023-05-16T12:54:17;94825.25;;;21.05;100.00
10652;BME280;5374;42.742;23.266;2023-05-16T12:57:05;94794.91;;;20.88;100.00
10652;BME280;5374;42.742;23.266;2023-05-16T12:59:56;94830.06;;;21.00;100.00
10652;BME280;5374;42.742;23.266;2023-05-16T13:02:43;94831.38;;;20.94;100.00
10652;BME280;5374;42.742;23.266;2023-05-16T13:05:31;94821.53;;;20.77;100.00
10652;BME280;5374;42.742;23.266;2023-05-16T13:08:18;94851.31;;;20.80;100.00
10652;BME280;5374;42.742;23.266;2023-05-16T13:11:05;94800.03;;;20.39;100.00
10652;BME280;5374;42.742;23.266;2023-05-16T13:13:53;94843.47;;;20.46;100.00
10652;BME280;5374;42.742;23.266;2023-05-16T13:16:41;94829.84;;;20.34;100.00
10652;BME280;5374;42.742;23.266;2023-05-16T13:19:29;94848.34;;;20.53;100.00
10652;BME280;5374;42.742;23.266;2023-05-16T13:22:17;94840.06;;;20.20;100.00
10652;BME280;5374;42.742;23.266;2023-05-16T13:25:05;94837.41;;;20.11;100.00
10652;BME280;5374;42.742;23.266;2023-05-16T13:27:52;94834.84;;;20.23;100.00
10652;BME280;5374;42.742;23.266;2023-05-16T13:30:39;94824.59;;;20.08;100.00
10652;BME280;5374;42.742;23.266;2023-05-16T13:33:28;94843.06;;;20.27;100.00
10652;BME280;5374;42.742;23.266;2023-05-16T13:36:16;94835.44;;;20.29;100.00
10652;BME280;5374;42.742;23.266;2023-05-16T13:39:03;94834.91;;;20.06;100.00
10652;BME280;5374;42.742;23.266;2023-05-16T13:41:50;94822.69;;;20.08;100.00
10652;BME280;5374;42.742;23.266;2023-05-16T13:44:37;94829.84;;;20.04;100.00
10652;BME280;5374;42.742;23.266;2023-05-16T13:47:24;94805.69;;;19.87;100.00
10652;BME280;5374;42.742;23.266;2023-05-16T13:50:13;94832.63;;;19.87;100.00
10652;BME280;5374;42.742;23.266;2023-05-16T13:53:00;94842.88;;;19.94;100.00
10652;BME280;5374;42.742;23.266;2023-05-16T13:55:47;94850.25;;;19.76;100.00
10652;BME280;5374;42.742;23.266;2023-05-16T13:58:34;94853.56;;;19.82;100.00
10652;BME280;5374;42.742;23.266;2023-05-16T14:01:22;94862.28;;;19.78;100.00
10652;BME280;5374;42.742;23.266;2023-05-16T14:04:09;94860.69;;;19.77;100.00
10652;BME280;5374;42.742;23.266;2023-05-16T14:06:58;94885.25;;;19.85;100.00
10652;BME280;5374;42.742;23.266;2023-05-16T14:09:45;94862.13;;;19.75;100.00
10652;BME280;5374;42.742;23.266;2023-05-16T14:12:32;94886.63;;;19.91;100.00
10652;BME280;5374;42.742;23.266;2023-05-16T14:15:20;94885.06;;;19.90;100.00
10652;BME280;5374;42.742;23.266;2023-05-16T14:18:16;94870.19;;;19.84;100.00
10652;BME280;5374;42.742;23.266;2023-05-16T14:21:04;94854.19;;;19.87;100.00
10652;BME280;5374;42.742;23.266;2023-05-16T14:23:52;94884.69;;;20.08;100.00
10652;BME280;5374;42.742;23.266;2023-05-16T14:26:39;94878.94;;;20.19;100.00
10652;BME280;5374;42.742;23.266;2023-05-16T14:29:26;94879.25;;;20.17;100.00
10652;BME280;5374;42.742;23.266;2023-05-16T14:32:14;94870.84;;;20.19;100.00
10652;BME280;5374;42.742;23.266;2023-05-16T14:35:01;94870.06;;;20.18;100.00
10652;BME280;5374;42.742;23.266;2023-05-16T14:37:49;94856.00;;;20.04;100.00
10652;BME280;5374;42.742;23.266;2023-05-16T14:40:38;94828.84;;;19.71;100.00
10652;BME280;5374;42.742;23.266;2023-05-16T14:43:25;94893.56;;;20.09;100.00
10652;BME280;5374;42.742;23.266;2023-05-16T14:46:13;94898.19;;;20.08;100.00
10652;BME280;5374;42.742;23.266;2023-05-16T14:49:00;94892.50;;;20.01;100.00
10652;BME280;5374;42.742;23.266;2023-05-16T14:51:49;94866.88;;;19.78;100.00
10652;BME280;5374;42.742;23.266;2023-05-16T14:54:36;94902.81;;;19.91;100.00
10652;BME280;5374;42.742;23.266;2023-05-16T14:57:28;94897.63;;;19.86;100.00
10652;BME280;5374;42.742;23.266;2023-05-16T15:00:17;94889.41;;;19.65;100.00
10652;BME280;5374;42.742;23.266;2023-05-16T15:03:08;94900.84;;;19.53;100.00